Time;durP1;ratioP1;P1;durP2;ratioP2;P2;SDS_P1;SDS_P2;PMS_P1;PMS_P2;Temp;Humidity;BMP_temperature;BMP_pressure;BME280_temperature;BME280_humidity;BME280_pressure;Samples;Min_cycle;Max_cycle;Signal;HPM_P1;HPM_P2
2022/11/17 00:01:14;;;;;;;;;;;7.70;99.90;;;;;;4991195;28;20279;-78
2022/11/17 00:03:42;;;;;;;;;;;7.60;99.90;;;;;;4990417;28;19988;-78
2022/11/17 00:06:09;;;;;;;;;;;7.60;99.90;;;;;;4981966;28;20447;-78
2022/11/17 00:08:36;;;;;;;;;;;7.60;99.90;;;;;;4989182;28;19988;-78
2022/11/17 00:11:04;;;;;;;;;;;7.60;99.90;;;;;;4987876;28;19981;-78
2022/11/17 00:16:20;;;;;;;;;;;7.60;99.90;;;;;;4985357;28;19967;-77
2022/11/17 00:21:33;;;;;;;;;;;7.60;99.90;;;;;;4987290;28;19926;-78
2022/11/17 00:24:00;;;;;;;;;;;7.60;99.90;;;;;;4987399;28;20335;-78
2022/11/17 00:26:31;;;;;;;;;;;7.60;99.90;;;;;;4988441;28;20012;-78
2022/11/17 00:28:58;;;;;;;;;;;7.50;99.90;;;;;;4988342;28;19939;-78
2022/11/17 00:34:12;;;;;;;;;;;7.50;99.90;;;;;;4987517;28;19925;-77
2022/11/17 00:36:43;;;;;;;;;;;7.50;99.90;;;;;;4987939;28;20664;-78
2022/11/17 00:39:10;;;;;;;;;;;7.50;99.90;;;;;;4989688;28;20007;-78
2022/11/17 00:41:37;;;;;;;;;;;7.50;99.90;;;;;;4996671;28;19933;-78
2022/11/17 00:44:04;;;;;;;;;;;7.50;99.90;;;;;;4988827;28;20025;-78
2022/11/17 00:46:32;;;;;;;;;;;7.50;99.90;;;;;;4986367;28;20032;-78
2022/11/17 00:48:58;;;;;;;;;;;7.50;99.90;;;;;;4986972;28;20006;-78
2022/11/17 00:51:27;;;;;;;;;;;7.50;99.90;;;;;;4981515;28;19934;-79
2022/11/17 00:53:54;;;;;;;;;;;7.60;99.90;;;;;;4986987;28;20025;-78
2022/11/17 00:56:21;;;;;;;;;;;7.50;99.90;;;;;;4991776;28;20473;-77
2022/11/17 00:58:47;;;;;;;;;;;7.50;99.90;;;;;;4988142;28;19929;-79
2022/11/17 01:01:15;;;;;;;;;;;7.50;99.90;;;;;;4983605;28;20021;-77
2022/11/17 01:03:42;;;;;;;;;;;7.50;99.90;;;;;;4990050;28;19929;-79
2022/11/17 01:06:09;;;;;;;;;;;7.50;99.90;;;;;;4987283;28;19969;-77
2022/11/17 01:08:38;;;;;;;;;;;7.50;99.90;;;;;;4989158;28;19929;-78
2022/11/17 01:11:06;;;;;;;;;;;7.50;99.90;;;;;;4990416;28;19954;-77
2022/11/17 01:13:33;;;;;;;;;;;7.50;99.90;;;;;;4980887;28;19934;-81
2022/11/17 01:16:04;;;;;;;;;;;7.50;99.90;;;;;;4986865;28;20040;-78
2022/11/17 01:18:31;;;;;;;;;;;7.50;99.90;;;;;;4984036;28;20058;-77
2022/11/17 01:21:03;;;;;;;;;;;7.50;99.90;;;;;;4983537;28;20392;-79
2022/11/17 01:23:29;;;;;;;;;;;7.50;99.90;;;;;;4992513;28;19929;-78
2022/11/17 01:26:02;;;;;;;;;;;7.40;99.90;;;;;;4984788;28;19930;-79
2022/11/17 01:28:28;;;;;;;;;;;7.40;99.90;;;;;;4993375;28;19926;-79
2022/11/17 01:30:58;;;;;;;;;;;7.40;99.90;;;;;;4985145;28;19926;-78
2022/11/17 01:33:25;;;;;;;;;;;7.50;99.90;;;;;;4991085;28;19930;-78
2022/11/17 01:35:52;;;;;;;;;;;7.50;99.90;;;;;;4982808;28;19933;-78
2022/11/17 01:38:19;;;;;;;;;;;7.50;99.90;;;;;;4990667;28;20478;-78
2022/11/17 01:40:46;;;;;;;;;;;7.50;99.90;;;;;;4990996;28;19933;-78
2022/11/17 01:43:14;;;;;;;;;;;7.50;99.90;;;;;;4990254;28;19926;-78
2022/11/17 01:45:41;;;;;;;;;;;7.50;99.90;;;;;;4989489;28;20060;-81
2022/11/17 01:48:09;;;;;;;;;;;7.50;99.90;;;;;;4986616;28;20376;-79
2022/11/17 01:50:37;;;;;;;;;;;7.50;99.90;;;;;;4990370;28;19979;-77
2022/11/17 01:53:05;;;;;;;;;;;7.50;99.90;;;;;;4990435;28;19933;-78
2022/11/17 01:55:34;;;;;;;;;;;7.40;99.90;;;;;;4993054;28;19941;-77
2022/11/17 01:58:03;;;;;;;;;;;7.40;99.90;;;;;;5002338;28;19992;-78
2022/11/17 02:00:31;;;;;;;;;;;7.40;99.90;;;;;;5009133;28;19925;-78
2022/11/17 02:02:58;;;;;;;;;;;7.40;99.90;;;;;;4987836;28;19929;-79
2022/11/17 02:05:35;;;;;;;;;;;7.40;99.90;;;;;;4995350;28;19933;-78
2022/11/17 02:08:03;;;;;;;;;;;7.40;99.90;;;;;;4991935;28;19941;-79
2022/11/17 02:10:30;;;;;;;;;;;7.50;99.90;;;;;;4999551;28;19941;-80
2022/11/17 02:12:57;;;;;;;;;;;7.50;99.90;;;;;;4986690;28;20194;-79
2022/11/17 02:15:24;;;;;;;;;;;7.50;99.90;;;;;;4995322;28;19979;-78
2022/11/17 02:17:53;;;;;;;;;;;7.40;99.90;;;;;;4991196;28;19925;-78
2022/11/17 02:20:23;;;;;;;;;;;7.40;99.90;;;;;;4988461;28;19991;-78
2022/11/17 02:23:17;;;;;;;;;;;7.40;99.90;;;;;;4990442;28;20344;-78
2022/11/17 02:25:53;;;;;;;;;;;7.40;99.90;;;;;;4951102;28;19934;-78
2022/11/17 02:28:22;;;;;;;;;;;7.40;99.90;;;;;;4992173;28;19933;-79
2022/11/17 02:30:55;;;;;;;;;;;7.40;99.90;;;;;;4986186;28;19933;-78
2022/11/17 02:33:25;;;;;;;;;;;7.40;99.90;;;;;;4992332;28;19988;-78
2022/11/17 02:35:55;;;;;;;;;;;7.40;99.90;;;;;;4989896;28;20630;-81
2022/11/17 02:38:27;;;;;;;;;;;7.50;99.90;;;;;;4990583;28;19949;-78
2022/11/17 02:40:58;;;;;;;;;;;7.50;99.90;;;;;;4992872;28;19930;-77
2022/11/17 02:46:15;;;;;;;;;;;7.50;99.90;;;;;;4990965;28;19968;-78
2022/11/17 02:48:45;;;;;;;;;;;7.50;99.90;;;;;;4987009;28;20044;-81
2022/11/17 02:51:14;;;;;;;;;;;7.40;99.90;;;;;;4989209;28;19933;-77
2022/11/17 02:53:43;;;;;;;;;;;7.40;99.90;;;;;;4992967;28;19925;-78
2022/11/17 02:56:10;;;;;;;;;;;7.40;99.90;;;;;;4986496;28;19976;-78
2022/11/17 02:58:38;;;;;;;;;;;7.40;99.90;;;;;;4993571;28;19999;-79
2022/11/17 03:01:10;;;;;;;;;;;7.40;99.90;;;;;;4992233;28;20675;-78
2022/11/17 03:03:44;;;;;;;;;;;7.30;99.90;;;;;;4990380;28;20035;-78
2022/11/17 03:06:15;;;;;;;;;;;7.30;99.90;;;;;;4986033;28;19925;-79
2022/11/17 03:08:45;;;;;;;;;;;7.40;99.90;;;;;;4991810;28;19992;-79
2022/11/17 03:11:13;;;;;;;;;;;7.40;99.90;;;;;;4991675;28;20028;-79
2022/11/17 03:13:44;;;;;;;;;;;7.40;99.90;;;;;;4988146;28;19932;-79
2022/11/17 03:16:15;;;;;;;;;;;7.40;99.90;;;;;;4990074;28;20037;-77
2022/11/17 03:18:47;;;;;;;;;;;7.30;99.90;;;;;;4992136;28;19972;-78
2022/11/17 03:21:17;;;;;;;;;;;7.30;99.90;;;;;;4987248;28;20028;-78
2022/11/17 03:23:46;;;;;;;;;;;7.30;99.90;;;;;;4990679;28;20003;-78
2022/11/17 03:26:15;;;;;;;;;;;7.30;99.90;;;;;;4988359;28;19929;-78
2022/11/17 03:28:44;;;;;;;;;;;7.30;99.90;;;;;;4989567;28;20451;-78
2022/11/17 03:31:11;;;;;;;;;;;7.30;99.90;;;;;;4982441;28;19937;-81
2022/11/17 03:33:40;;;;;;;;;;;7.30;99.90;;;;;;4990662;28;19980;-82
2022/11/17 03:36:10;;;;;;;;;;;7.30;99.90;;;;;;4990162;28;19933;-79
2022/11/17 03:38:38;;;;;;;;;;;7.30;99.90;;;;;;4991170;28;20344;-78
2022/11/17 03:41:06;;;;;;;;;;;7.30;99.90;;;;;;4991929;28;19925;-77
2022/11/17 03:43:34;;;;;;;;;;;7.30;99.90;;;;;;4989325;28;19969;-78
2022/11/17 03:46:04;;;;;;;;;;;7.30;99.90;;;;;;4986165;28;19930;-77
2022/11/17 03:48:33;;;;;;;;;;;7.30;99.90;;;;;;4989397;28;19937;-78
2022/11/17 03:51:05;;;;;;;;;;;7.30;99.90;;;;;;4992177;28;19929;-78
2022/11/17 03:53:32;;;;;;;;;;;7.30;99.90;;;;;;4985943;28;20020;-79
2022/11/17 03:56:02;;;;;;;;;;;7.30;99.90;;;;;;4988170;28;20015;-78
2022/11/17 03:58:31;;;;;;;;;;;7.30;99.90;;;;;;4990472;28;19930;-78
2022/11/17 04:00:59;;;;;;;;;;;7.30;99.90;;;;;;4990147;28;19973;-78
2022/11/17 04:03:30;;;;;;;;;;;7.30;99.90;;;;;;4987765;28;20049;-77
2022/11/17 04:05:57;;;;;;;;;;;7.30;99.90;;;;;;4991153;28;19939;-78
2022/11/17 04:08:28;;;;;;;;;;;7.30;99.90;;;;;;4990410;28;20814;-77
2022/11/17 04:16:23;;;;;;;;;;;7.30;99.90;;;;;;4991720;28;19995;-79
2022/11/17 04:18:51;;;;;;;;;;;7.30;99.90;;;;;;4987601;28;20492;-78
2022/11/17 04:21:18;;;;;;;;;;;7.30;99.90;;;;;;4987371;28;19961;-77
2022/11/17 04:23:45;;;;;;;;;;;7.30;99.90;;;;;;4985753;28;19926;-78
2022/11/17 04:28:57;;;;;;;;;;;7.30;99.90;;;;;;4983520;28;19925;-80
2022/11/17 04:31:24;;;;;;;;;;;7.30;99.90;;;;;;4991223;28;20012;-78
2022/11/17 04:33:54;;;;;;;;;;;7.30;99.90;;;;;;4981704;28;20027;-79
2022/11/17 04:36:21;;;;;;;;;;;7.30;99.90;;;;;;4982119;28;20416;-79
2022/11/17 04:38:49;;;;;;;;;;;7.30;99.90;;;;;;4985075;28;19929;-78
2022/11/17 04:44:01;;;;;;;;;;;7.30;99.90;;;;;;4996697;28;20425;-74
2022/11/17 04:46:29;;;;;;;;;;;7.30;99.90;;;;;;5007966;28;19973;-74
2022/11/17 04:48:58;;;;;;;;;;;7.30;99.90;;;;;;5005866;28;19983;-74
2022/11/17 04:51:25;;;;;;;;;;;7.40;99.90;;;;;;5005619;28;20027;-74
2022/11/17 04:53:52;;;;;;;;;;;7.30;99.90;;;;;;5003927;28;19976;-74
2022/11/17 04:56:20;;;;;;;;;;;7.40;99.90;;;;;;5004158;28;19953;-75
2022/11/17 04:58:47;;;;;;;;;;;7.30;99.90;;;;;;5002783;28;19929;-74
2022/11/17 05:01:16;;;;;;;;;;;7.30;99.90;;;;;;5005806;28;20858;-73
2022/11/17 05:03:43;;;;;;;;;;;7.30;99.90;;;;;;5017052;28;19952;-74
2022/11/17 05:06:13;;;;;;;;;;;7.20;99.90;;;;;;5013866;28;19999;-74
2022/11/17 05:08:41;;;;;;;;;;;7.30;99.90;;;;;;5008518;28;19933;-74
2022/11/17 05:13:52;;;;;;;;;;;7.20;99.90;;;;;;5018712;28;19936;-74
2022/11/17 05:19:05;;;;;;;;;;;7.20;99.90;;;;;;5016295;28;20427;-75
2022/11/17 05:21:33;;;;;;;;;;;7.20;99.90;;;;;;5021921;28;19933;-74
2022/11/17 05:24:02;;;;;;;;;;;7.20;99.90;;;;;;5018143;28;19957;-75
2022/11/17 05:26:30;;;;;;;;;;;7.20;99.90;;;;;;5014157;28;19928;-74
2022/11/17 05:28:58;;;;;;;;;;;7.20;99.90;;;;;;5017783;28;19961;-74
2022/11/17 05:31:25;;;;;;;;;;;7.20;99.90;;;;;;5011903;28;20330;-74
2022/11/17 05:33:52;;;;;;;;;;;7.20;99.90;;;;;;5021350;28;19936;-72
2022/11/17 05:36:19;;;;;;;;;;;7.20;99.90;;;;;;5011335;28;19940;-74
2022/11/17 05:38:48;;;;;;;;;;;7.20;99.90;;;;;;5020900;28;19924;-79
2022/11/17 05:41:15;;;;;;;;;;;7.20;99.90;;;;;;5020424;28;19979;-75
2022/11/17 05:43:42;;;;;;;;;;;7.20;99.90;;;;;;5021396;28;20002;-75
2022/11/17 05:46:09;;;;;;;;;;;7.20;99.90;;;;;;5016404;28;21811;-75
2022/11/17 05:48:35;;;;;;;;;;;7.20;99.90;;;;;;5023512;28;19964;-73
2022/11/17 05:51:02;;;;;;;;;;;7.30;99.90;;;;;;5014187;28;20020;-75
2022/11/17 05:53:29;;;;;;;;;;;7.20;99.90;;;;;;5013744;28;19933;-72
2022/11/17 05:56:07;;;;;;;;;;;7.20;99.90;;;;;;5015121;28;19933;-76
2022/11/17 05:58:35;;;;;;;;;;;7.30;99.90;;;;;;5023897;28;19948;-72
2022/11/17 06:01:02;;;;;;;;;;;7.30;99.90;;;;;;5010424;28;19932;-73
2022/11/17 06:03:34;;;;;;;;;;;7.30;99.90;;;;;;5008463;28;19933;-74
2022/11/17 06:06:01;;;;;;;;;;;7.20;99.90;;;;;;5007553;28;19932;-73
2022/11/17 06:08:28;;;;;;;;;;;7.20;99.90;;;;;;5015200;28;19937;-75
2022/11/17 06:10:56;;;;;;;;;;;7.20;99.90;;;;;;5001273;28;20028;-72
2022/11/17 06:13:27;;;;;;;;;;;7.20;99.90;;;;;;5011934;28;19944;-72
2022/11/17 06:15:55;;;;;;;;;;;7.20;99.90;;;;;;5008599;28;20399;-73
2022/11/17 06:18:23;;;;;;;;;;;7.20;99.90;;;;;;5020037;28;20334;-76
2022/11/17 06:20:52;;;;;;;;;;;7.20;99.90;;;;;;5014254;28;19933;-74
2022/11/17 06:23:20;;;;;;;;;;;7.20;99.90;;;;;;5006987;28;20031;-74
2022/11/17 06:25:47;;;;;;;;;;;7.20;99.90;;;;;;5005089;28;19939;-74
2022/11/17 06:28:16;;;;;;;;;;;7.20;99.90;;;;;;5010286;28;20016;-74
2022/11/17 06:30:44;;;;;;;;;;;7.20;99.90;;;;;;5017579;28;19930;-74
2022/11/17 06:33:12;;;;;;;;;;;7.30;99.90;;;;;;5003151;28;20565;-74
2022/11/17 06:35:40;;;;;;;;;;;7.30;99.90;;;;;;5005441;28;19933;-74
2022/11/17 06:38:07;;;;;;;;;;;7.30;99.90;;;;;;5015866;28;19925;-74
2022/11/17 06:40:33;;;;;;;;;;;7.30;99.90;;;;;;5011715;28;20444;-74
2022/11/17 06:43:09;;;;;;;;;;;7.30;99.90;;;;;;5000224;28;20369;-74
2022/11/17 06:45:36;;;;;;;;;;;7.20;99.90;;;;;;5017561;28;19983;-74
2022/11/17 06:48:05;;;;;;;;;;;7.20;99.90;;;;;;5019496;28;19937;-74
2022/11/17 06:50:32;;;;;;;;;;;7.20;99.90;;;;;;5024287;28;19940;-73
2022/11/17 06:52:59;;;;;;;;;;;7.30;99.90;;;;;;5012405;28;19948;-73
2022/11/17 06:55:26;;;;;;;;;;;7.30;99.90;;;;;;5024002;28;19995;-74
2022/11/17 06:57:57;;;;;;;;;;;7.30;99.90;;;;;;5015685;28;19933;-74
2022/11/17 07:00:24;;;;;;;;;;;7.30;99.90;;;;;;5019824;28;20019;-74
2022/11/17 07:02:51;;;;;;;;;;;7.20;99.90;;;;;;5015314;28;19967;-74
2022/11/17 07:05:19;;;;;;;;;;;7.20;99.90;;;;;;5020672;28;20012;-73
2022/11/17 07:07:46;;;;;;;;;;;7.20;99.90;;;;;;5018998;28;20048;-74
2022/11/17 07:10:13;;;;;;;;;;;7.20;99.90;;;;;;5019390;28;19968;-74
2022/11/17 07:12:40;;;;;;;;;;;7.30;99.90;;;;;;5025364;28;19929;-74
2022/11/17 07:15:07;;;;;;;;;;;7.30;99.90;;;;;;5025101;28;19948;-74
2022/11/17 07:17:34;;;;;;;;;;;7.30;99.90;;;;;;5016300;28;19937;-73
2022/11/17 07:20:01;;;;;;;;;;;7.30;99.90;;;;;;5024064;28;20380;-74
2022/11/17 07:22:29;;;;;;;;;;;7.30;99.90;;;;;;5016224;28;19976;-74
2022/11/17 07:24:56;;;;;;;;;;;7.30;99.90;;;;;;5023794;28;19925;-74
2022/11/17 07:27:23;;;;;;;;;;;7.30;99.90;;;;;;5011942;28;19965;-74
2022/11/17 07:29:49;;;;;;;;;;;7.30;99.90;;;;;;5021040;28;20508;-74
2022/11/17 07:32:16;;;;;;;;;;;7.30;99.90;;;;;;5019048;28;19925;-74
2022/11/17 07:34:43;;;;;;;;;;;7.30;99.90;;;;;;5025175;28;19936;-73
2022/11/17 07:37:10;;;;;;;;;;;7.30;99.90;;;;;;5017639;28;20421;-73
2022/11/17 07:39:38;;;;;;;;;;;7.30;99.90;;;;;;5015622;28;19964;-74
2022/11/17 07:42:05;;;;;;;;;;;7.30;99.90;;;;;;5024834;28;19926;-74
2022/11/17 07:44:31;;;;;;;;;;;7.30;99.90;;;;;;5015627;28;19929;-73
2022/11/17 07:46:58;;;;;;;;;;;7.30;99.90;;;;;;5016884;28;19940;-73
2022/11/17 07:49:26;;;;;;;;;;;7.30;99.90;;;;;;5020613;28;20035;-74
2022/11/17 07:51:53;;;;;;;;;;;7.30;99.90;;;;;;5016818;28;19956;-73
2022/11/17 07:54:19;;;;;;;;;;;7.30;99.90;;;;;;5018567;28;19925;-73
2022/11/17 07:56:48;;;;;;;;;;;7.30;99.90;;;;;;5022226;28;19925;-74
2022/11/17 07:59:14;;;;;;;;;;;7.30;99.90;;;;;;5020159;28;19929;-74
2022/11/17 08:01:42;;;;;;;;;;;7.30;99.90;;;;;;5017039;28;19926;-74
2022/11/17 08:04:08;;;;;;;;;;;7.30;99.90;;;;;;5020660;28;19925;-74
2022/11/17 08:06:36;;;;;;;;;;;7.30;99.90;;;;;;5018006;28;19925;-73
2022/11/17 08:09:02;;;;;;;;;;;7.30;99.90;;;;;;5018353;28;19939;-74
2022/11/17 08:11:29;;;;;;;;;;;7.30;99.90;;;;;;5014160;28;19987;-74
2022/11/17 08:13:58;;;;;;;;;;;7.30;99.90;;;;;;5014768;28;20019;-74
2022/11/17 08:16:29;;;;;;;;;;;7.30;99.90;;;;;;5019449;28;19925;-74
2022/11/17 08:18:56;;;;;;;;;;;7.30;99.90;;;;;;5013349;28;19956;-74
2022/11/17 08:21:23;;;;;;;;;;;7.30;99.90;;;;;;5020446;28;19925;-74
2022/11/17 08:23:50;;;;;;;;;;;7.30;99.90;;;;;;5017688;28;19979;-74
2022/11/17 08:26:18;;;;;;;;;;;7.30;99.90;;;;;;5018927;28;20345;-74
2022/11/17 08:28:44;;;;;;;;;;;7.30;99.90;;;;;;5018747;28;19925;-74
2022/11/17 08:31:12;;;;;;;;;;;7.40;99.90;;;;;;5019507;28;20410;-74
2022/11/17 08:33:39;;;;;;;;;;;7.30;99.90;;;;;;5018389;28;19944;-74
2022/11/17 08:36:06;;;;;;;;;;;7.40;99.90;;;;;;5015349;28;19925;-74
2022/11/17 08:38:34;;;;;;;;;;;7.40;99.90;;;;;;5019403;28;20407;-74
2022/11/17 08:41:02;;;;;;;;;;;7.40;99.90;;;;;;5017843;28;19976;-74
2022/11/17 08:43:29;;;;;;;;;;;7.40;99.90;;;;;;5014336;28;19987;-73
2022/11/17 08:45:55;;;;;;;;;;;7.40;99.90;;;;;;5019861;28;19951;-74
2022/11/17 08:48:24;;;;;;;;;;;7.40;99.90;;;;;;5019375;28;19968;-74
2022/11/17 08:50:50;;;;;;;;;;;7.40;99.90;;;;;;5012424;28;19925;-73
2022/11/17 08:53:18;;;;;;;;;;;7.40;99.90;;;;;;5016805;28;20036;-73
2022/11/17 08:55:45;;;;;;;;;;;7.40;99.90;;;;;;5020971;28;20032;-74
2022/11/17 08:58:12;;;;;;;;;;;7.40;99.90;;;;;;5013840;28;19980;-73
2022/11/17 09:00:39;;;;;;;;;;;7.40;99.90;;;;;;5030725;28;20019;-73
2022/11/17 09:03:06;;;;;;;;;;;7.40;99.90;;;;;;5007224;28;20453;-74
2022/11/17 09:05:36;;;;;;;;;;;7.50;99.90;;;;;;5024057;28;19928;-73
2022/11/17 09:08:04;;;;;;;;;;;7.50;99.90;;;;;;5016019;28;19944;-73
2022/11/17 09:10:30;;;;;;;;;;;7.50;99.90;;;;;;5026473;28;20574;-74
2022/11/17 09:12:57;;;;;;;;;;;7.50;99.90;;;;;;5019137;28;19956;-73
2022/11/17 09:15:24;;;;;;;;;;;7.50;99.90;;;;;;5019773;28;19932;-74
2022/11/17 09:17:51;;;;;;;;;;;7.50;99.90;;;;;;5015064;28;20015;-74
2022/11/17 09:20:19;;;;;;;;;;;7.50;99.90;;;;;;5014951;28;19964;-73
2022/11/17 09:22:47;;;;;;;;;;;7.50;99.90;;;;;;5018028;28;19926;-73
2022/11/17 09:25:14;;;;;;;;;;;7.60;99.90;;;;;;5013537;28;19991;-73
2022/11/17 09:27:41;;;;;;;;;;;7.50;99.90;;;;;;5019919;28;19931;-74
2022/11/17 09:30:08;;;;;;;;;;;7.50;99.90;;;;;;5018345;28;19933;-73
2022/11/17 09:32:35;;;;;;;;;;;7.60;99.90;;;;;;5023811;28;19968;-73
2022/11/17 09:35:05;;;;;;;;;;;7.60;99.90;;;;;;5017651;28;20379;-74
2022/11/17 09:37:31;;;;;;;;;;;7.60;99.90;;;;;;5013702;28;19932;-74
2022/11/17 09:40:00;;;;;;;;;;;7.60;99.90;;;;;;5014760;28;19925;-74
2022/11/17 09:42:27;;;;;;;;;;;7.60;99.90;;;;;;5017795;28;20606;-73
2022/11/17 09:44:57;;;;;;;;;;;7.70;99.90;;;;;;5014648;28;19925;-73
2022/11/17 09:47:35;;;;;;;;;;;7.70;99.90;;;;;;5017947;28;19925;-73
2022/11/17 09:50:03;;;;;;;;;;;7.70;99.90;;;;;;5019402;28;20377;-74
2022/11/17 09:52:33;;;;;;;;;;;7.70;99.90;;;;;;5018265;28;19925;-73
2022/11/17 09:55:02;;;;;;;;;;;7.70;99.90;;;;;;5015664;28;19940;-73
2022/11/17 09:57:33;;;;;;;;;;;7.70;99.90;;;;;;5008095;28;19925;-74
2022/11/17 10:00:06;;;;;;;;;;;7.70;99.90;;;;;;5018691;28;19933;-74
2022/11/17 10:02:33;;;;;;;;;;;7.70;99.90;;;;;;5013172;28;19933;-74
2022/11/17 10:05:00;;;;;;;;;;;7.70;99.90;;;;;;5012188;28;20219;-74
2022/11/17 10:07:29;;;;;;;;;;;7.70;99.90;;;;;;5017680;28;19929;-74
2022/11/17 10:09:56;;;;;;;;;;;7.70;99.90;;;;;;5021203;28;19978;-74
2022/11/17 10:12:26;;;;;;;;;;;7.80;99.90;;;;;;5015315;28;19926;-74
2022/11/17 10:14:54;;;;;;;;;;;7.80;99.90;;;;;;5019713;28;20012;-73
2022/11/17 10:17:21;;;;;;;;;;;7.80;99.90;;;;;;5011671;28;20403;-73
2022/11/17 10:19:47;;;;;;;;;;;7.80;99.90;;;;;;5017540;28;20551;-74
2022/11/17 10:22:23;;;;;;;;;;;7.90;99.90;;;;;;5012018;28;20323;-74
2022/11/17 10:24:53;;;;;;;;;;;7.80;99.90;;;;;;5013212;28;19956;-74
2022/11/17 10:27:21;;;;;;;;;;;7.80;99.90;;;;;;5022078;28;19933;-74
2022/11/17 10:30:00;;;;;;;;;;;7.80;99.90;;;;;;5023609;28;20298;-72
2022/11/17 10:32:27;;;;;;;;;;;7.90;99.90;;;;;;5015159;28;19925;-73
2022/11/17 10:34:54;;;;;;;;;;;7.80;99.90;;;;;;5026767;28;20012;-73
2022/11/17 10:37:23;;;;;;;;;;;7.90;99.90;;;;;;5013972;28;20105;-74
2022/11/17 10:39:50;;;;;;;;;;;7.90;99.90;;;;;;5019310;28;20016;-73
2022/11/17 10:42:22;;;;;;;;;;;7.90;99.90;;;;;;5012593;28;20024;-74
2022/11/17 10:44:51;;;;;;;;;;;7.90;99.90;;;;;;5022413;28;20020;-74
2022/11/17 10:47:26;;;;;;;;;;;7.90;99.90;;;;;;5013068;28;19932;-74
2022/11/17 10:50:05;;;;;;;;;;;8.00;99.90;;;;;;5077546;22;19935;-73
2022/11/17 10:52:32;;;;;;;;;;;7.90;99.90;;;;;;5002241;28;19961;-74
2022/11/17 10:55:10;;;;;;;;;;;8.00;99.90;;;;;;5002092;28;20387;-73
2022/11/17 10:57:41;;;;;;;;;;;8.00;99.90;;;;;;4995649;28;19929;-73
2022/11/17 11:00:22;;;;;;;;;;;8.00;99.90;;;;;;5001343;28;19930;-74
2022/11/17 11:03:02;;;;;;;;;;;8.00;99.90;;;;;;4997636;28;20009;-73
2022/11/17 11:05:29;;;;;;;;;;;8.00;99.90;;;;;;5002853;28;19932;-73
2022/11/17 11:08:07;;;;;;;;;;;8.10;99.90;;;;;;4997445;28;19932;-73
2022/11/17 11:10:35;;;;;;;;;;;8.10;99.90;;;;;;5001283;28;19937;-73
2022/11/17 11:13:06;;;;;;;;;;;8.00;99.90;;;;;;4997272;28;20012;-73
2022/11/17 11:15:34;;;;;;;;;;;8.10;99.90;;;;;;5000045;28;19930;-73
2022/11/17 11:18:05;;;;;;;;;;;8.10;99.90;;;;;;4994915;28;20522;-73
2022/11/17 11:20:39;;;;;;;;;;;8.10;99.90;;;;;;5000699;28;19926;-73
2022/11/17 11:23:08;;;;;;;;;;;8.10;99.90;;;;;;5000835;28;19981;-75
2022/11/17 11:25:40;;;;;;;;;;;8.10;99.90;;;;;;4995152;28;19984;-75
2022/11/17 11:28:18;;;;;;;;;;;8.20;99.90;;;;;;5000206;28;20016;-75
2022/11/17 11:30:52;;;;;;;;;;;8.20;99.90;;;;;;5004955;28;19934;-75
2022/11/17 11:33:27;;;;;;;;;;;8.20;99.90;;;;;;4998714;28;19934;-75
2022/11/17 11:36:04;;;;;;;;;;;8.20;99.90;;;;;;5000931;28;19929;-75
2022/11/17 11:38:55;;;;;;;;;;;8.20;99.90;;;;;;4997544;28;19933;-76
2022/11/17 11:41:31;;;;;;;;;;;8.30;99.90;;;;;;4986785;28;19934;-76
2022/11/17 11:44:06;;;;;;;;;;;8.30;99.90;;;;;;4998910;28;20351;-75
2022/11/17 11:46:36;;;;;;;;;;;8.40;99.90;;;;;;4995938;28;20020;-75
2022/11/17 11:49:12;;;;;;;;;;;8.40;99.90;;;;;;4999225;28;19941;-75
2022/11/17 11:51:39;;;;;;;;;;;8.40;99.90;;;;;;5001698;28;20827;-74
2022/11/17 11:54:09;;;;;;;;;;;8.40;99.90;;;;;;4997589;28;19926;-73
2022/11/17 11:56:38;;;;;;;;;;;8.50;99.90;;;;;;5000773;28;20351;-75
2022/11/17 11:59:06;;;;;;;;;;;8.50;99.90;;;;;;5001401;28;19933;-75
2022/11/17 12:01:41;;;;;;;;;;;8.50;99.90;;;;;;4996244;28;19960;-74
2022/11/17 12:04:13;;;;;;;;;;;8.50;99.90;;;;;;4999062;28;19941;-73
2022/11/17 12:06:48;;;;;;;;;;;8.60;99.90;;;;;;4998597;28;19925;-74
2022/11/17 12:09:24;;;;;;;;;;;8.60;99.90;;;;;;4999783;28;19934;-73
2022/11/17 12:12:01;;;;;;;;;;;8.60;99.90;;;;;;5001424;28;19960;-76
2022/11/17 12:14:29;;;;;;;;;;;8.60;99.90;;;;;;4998564;28;19984;-76
2022/11/17 12:17:04;;;;;;;;;;;8.60;99.90;;;;;;4999774;28;20008;-76
2022/11/17 12:19:53;;;;;;;;;;;8.70;99.90;;;;;;4994399;28;19941;-73
2022/11/17 12:22:25;;;;;;;;;;;8.70;99.90;;;;;;4993695;28;19972;-75
2022/11/17 12:24:55;;;;;;;;;;;8.70;99.90;;;;;;5001255;28;20013;-76
2022/11/17 12:27:41;;;;;;;;;;;8.70;99.90;;;;;;4995137;28;20578;-75
2022/11/17 12:30:35;;;;;;;;;;;8.80;99.90;;;;;;5000970;28;19933;-75
2022/11/17 12:33:03;;;;;;;;;;;8.80;99.90;;;;;;4996427;28;20020;-75
2022/11/17 12:35:32;;;;;;;;;;;8.80;99.90;;;;;;4999558;28;19925;-77
2022/11/17 12:38:18;;;;;;;;;;;8.90;99.90;;;;;;5010350;28;19925;-75
2022/11/17 12:40:46;;;;;;;;;;;8.90;99.90;;;;;;4994232;28;20386;-75
2022/11/17 12:43:20;;;;;;;;;;;8.90;99.90;;;;;;5003623;28;19932;-75
2022/11/17 12:45:58;;;;;;;;;;;9.00;99.90;;;;;;4997641;28;19940;-77
2022/11/17 12:48:26;;;;;;;;;;;9.00;99.90;;;;;;4995033;28;19926;-77
2022/11/17 12:50:57;;;;;;;;;;;9.00;99.90;;;;;;4996091;28;19968;-75
2022/11/17 12:53:38;;;;;;;;;;;9.00;99.90;;;;;;4996708;28;19930;-72
2022/11/17 12:56:14;;;;;;;;;;;9.00;99.90;;;;;;4995305;28;20034;-73
2022/11/17 12:58:46;;;;;;;;;;;9.00;99.90;;;;;;5000326;28;19937;-75
2022/11/17 13:01:16;;;;;;;;;;;9.10;99.90;;;;;;4996750;28;19925;-75
2022/11/17 13:03:46;;;;;;;;;;;9.10;99.90;;;;;;4999245;28;20376;-75
2022/11/17 13:06:15;;;;;;;;;;;9.20;99.90;;;;;;4993841;28;19976;-75
2022/11/17 13:08:54;;;;;;;;;;;9.20;99.90;;;;;;4996702;28;20292;-75
2022/11/17 13:11:21;;;;;;;;;;;9.20;99.90;;;;;;5001668;28;20384;-75
2022/11/17 13:13:48;;;;;;;;;;;9.30;99.90;;;;;;5004585;28;19980;-77
2022/11/17 13:16:18;;;;;;;;;;;9.30;99.90;;;;;;4998359;28;19925;-78
2022/11/17 13:18:45;;;;;;;;;;;9.30;99.90;;;;;;4998982;28;19967;-77
2022/11/17 13:21:29;;;;;;;;;;;9.30;99.90;;;;;;4995115;28;19933;-78
2022/11/17 13:23:56;;;;;;;;;;;9.40;99.90;;;;;;4994203;28;19983;-77
2022/11/17 13:26:24;;;;;;;;;;;9.40;99.90;;;;;;4995634;28;19933;-77
2022/11/17 13:29:02;;;;;;;;;;;9.40;99.90;;;;;;4999016;28;20339;-74
2022/11/17 13:31:28;;;;;;;;;;;9.50;99.90;;;;;;4993350;28;19930;-74
2022/11/17 13:33:59;;;;;;;;;;;9.50;99.90;;;;;;4996512;28;19948;-75
2022/11/17 13:36:26;;;;;;;;;;;9.50;99.90;;;;;;5002328;28;19964;-75
2022/11/17 13:38:56;;;;;;;;;;;9.50;99.90;;;;;;4996367;28;19929;-74
2022/11/17 13:41:24;;;;;;;;;;;9.60;99.90;;;;;;4994105;28;19925;-76
2022/11/17 13:43:54;;;;;;;;;;;9.60;99.90;;;;;;4998724;28;19948;-75
2022/11/17 13:46:21;;;;;;;;;;;9.60;99.90;;;;;;4993814;28;20971;-75
2022/11/17 13:48:49;;;;;;;;;;;9.60;99.90;;;;;;4998059;28;20020;-75
2022/11/17 13:51:31;;;;;;;;;;;9.60;99.90;;;;;;4994676;28;20021;-75
2022/11/17 13:54:01;;;;;;;;;;;9.70;99.90;;;;;;4996562;28;19934;-75
2022/11/17 13:56:33;;;;;;;;;;;9.70;99.90;;;;;;4997539;28;19925;-75
2022/11/17 13:59:02;;;;;;;;;;;9.70;99.90;;;;;;4994682;28;19976;-74
2022/11/17 14:01:30;;;;;;;;;;;9.70;99.90;;;;;;4999770;28;19988;-75
2022/11/17 14:04:13;;;;;;;;;;;9.70;99.90;;;;;;5004618;28;19933;-77
2022/11/17 14:06:53;;;;;;;;;;;9.70;99.90;;;;;;4997410;28;20370;-77
2022/11/17 14:09:22;;;;;;;;;;;9.70;99.90;;;;;;5002236;28;20315;-77
2022/11/17 14:11:49;;;;;;;;;;;9.70;99.90;;;;;;5005578;28;19926;-77
2022/11/17 14:14:19;;;;;;;;;;;9.80;99.90;;;;;;5005122;28;20017;-77
2022/11/17 14:16:46;;;;;;;;;;;9.80;99.90;;;;;;5016534;28;19953;-78
2022/11/17 14:19:26;;;;;;;;;;;9.80;99.90;;;;;;5002394;28;19926;-77
2022/11/17 14:22:00;;;;;;;;;;;9.80;99.90;;;;;;4995597;28;19926;-77
2022/11/17 14:24:28;;;;;;;;;;;9.80;99.90;;;;;;4997712;28;20031;-77
2022/11/17 14:26:56;;;;;;;;;;;9.80;99.90;;;;;;4998077;28;19926;-77
2022/11/17 14:29:23;;;;;;;;;;;9.80;99.90;;;;;;5019043;28;19932;-77
2022/11/17 14:31:50;;;;;;;;;;;9.80;99.90;;;;;;4996591;28;20485;-77
2022/11/17 14:34:17;;;;;;;;;;;9.80;99.90;;;;;;5004707;28;19929;-75
2022/11/17 14:36:43;;;;;;;;;;;9.80;99.90;;;;;;4999139;28;19926;-77
2022/11/17 14:39:15;;;;;;;;;;;9.90;99.90;;;;;;5000251;28;20000;-77
2022/11/17 14:41:43;;;;;;;;;;;9.80;99.90;;;;;;4997741;28;20009;-75
2022/11/17 14:44:10;;;;;;;;;;;9.80;99.90;;;;;;4999911;28;20396;-77
2022/11/17 14:46:37;;;;;;;;;;;9.80;99.90;;;;;;4988775;28;19933;-77
2022/11/17 14:49:04;;;;;;;;;;;9.90;99.90;;;;;;5000213;28;20117;-77
2022/11/17 14:51:31;;;;;;;;;;;9.80;99.90;;;;;;4999623;28;20308;-77
2022/11/17 14:53:58;;;;;;;;;;;9.90;99.90;;;;;;4998871;28;19926;-77
2022/11/17 14:56:25;;;;;;;;;;;9.90;99.90;;;;;;4996240;28;20016;-78
2022/11/17 14:58:55;;;;;;;;;;;9.90;99.90;;;;;;4981859;28;19992;-77
2022/11/17 15:01:24;;;;;;;;;;;9.90;99.90;;;;;;4996945;28;19952;-77
2022/11/17 15:03:51;;;;;;;;;;;9.90;99.90;;;;;;4994840;28;19940;-77
2022/11/17 15:06:20;;;;;;;;;;;9.90;99.90;;;;;;4992492;28;20128;-77
2022/11/17 15:08:47;;;;;;;;;;;9.90;99.90;;;;;;4985476;28;19941;-77
2022/11/17 15:11:15;;;;;;;;;;;9.90;99.90;;;;;;5017209;28;20276;-78